Aérodrome :
LOGIN :

S'inscrire | Disclaimer

   EN    FR    IT 

 










Légende :    VFR   VFR Marginal   IFR   IFR Intensif   IFR Très Intensif
Visi : 
Plafond : 
>= 8 km
>= 3000ft
5 à 8 km
1000 à 3000 ft
1500m à 5 km
500 à 1000 ft
800 à 1500m
200 à 500 ft
< 800m
< 200 ft
Symboles :   Orages  Brouillard  Fortes neiges  Fortes précipitations  Vent > 20 kt
SIGMETs :   Divers  Orages  Givrage  Turbulence  Onde Orograph.  Cendres Volcan.






- Altitude de l'aérodrome : 505 ft
- Code IATA : SXB


LFST - Strasbourg

DERNIER METAR :
  • 052030Z AUTO VRB02KT 0350 0300 R23/0400N R05/0350N FZFG VV/// M03/M03 Q1023 NOSIG

METARs EXPIRÉS :
  • 052000Z AUTO VRB02KT 0400 0350 R23/0450N R05/0400N FZFG VV/// M03/M03 Q1023 TEMPO 0250
  • 051930Z AUTO 25002KT 0400 0350 R23/0450N R05/0400N FZFG VV/// M03/M03 Q1023 TEMPO 0250
  • 051900Z AUTO 23003KT 0350 R23/0400N R05/0400N FZFG VV/// M03/M03 Q1023 NOSIG
  • 051830Z AUTO 26003KT 200V290 0400 0350 R23/0400N R05/0400N FZFG VV/// M02/M02 Q1023 TEMPO 0250
  • 051800Z AUTO 21003KT 170V240 0400 0350 R23/0400N R05/0450N FZFG VV/// M02/M02 Q1023 TEMPO 0250

TAF TAF LFST
Valide du 05 à 18h jusqu'au 06 à 18h UTC


051700Z 0518/0618 19004KT 0500 FZFG VV///
PROB40 0518/0603 0250
BECMG 0606/0608 2000 BR BKN002
BECMG 0608/0610 9999 NSW FEW006
BECMG 0610/0612 CAVOK



MET'MAP, la Météo Aéronautique d'un coup d'oeil ! - Copyright ORBIFLY Décembre 2007 - Disclaimer

ORBIFLY MET'MAP TEAM :

Programmation & Développement : Alexandra Zaïnal
Sur une idée originale de : Baudouin d'Aumeries
Assistance à la programmation : Marc-Olivier Méhu
Soutien technique & logistique : Manuel Goepfert

Contact : metmap@orbifly.com




SOURCES & CREDITS :

   NOAA